Time;durP1;ratioP1;P1;durP2;ratioP2;P2;SDS_P1;SDS_P2;PMS_P1;PMS_P2;Temp;Humidity;BMP_temperature;BMP_pressure;BME280_temperature;BME280_humidity;BME280_pressure;Samples;Min_cycle;Max_cycle;Signal;HPM_P1;HPM_P2
2022/11/10 00:00:55;;;;;;;15.43;3.20;;;9.40;99.90;;;;;;5001955;28;20194;-51
2022/11/10 00:03:21;;;;;;;14.30;3.13;;;10.00;99.90;;;;;;5006161;28;20145;-54
2022/11/10 00:05:47;;;;;;;8.82;2.45;;;9.50;99.90;;;;;;5003786;28;20128;-49
2022/11/10 00:08:12;;;;;;;14.70;3.10;;;9.70;99.90;;;;;;5004537;28;20037;-52
2022/11/10 00:10:55;;;;;;;16.13;2.92;;;10.40;99.90;;;;;;5005642;28;20041;-51
2022/11/10 00:13:31;;;;;;;12.18;2.63;;;9.40;99.90;;;;;;5002260;28;20685;-52
2022/11/10 00:18:43;;;;;;;15.48;2.78;;;9.10;99.90;;;;;;5000401;28;20081;-53
2022/11/10 00:21:11;;;;;;;18.67;3.38;;;11.50;99.90;;;;;;5003330;28;20547;-54
2022/11/10 00:23:38;;;;;;;15.68;2.67;;;10.20;99.90;;;;;;5002488;28;20152;-52
2022/11/10 00:26:10;;;;;;;19.50;2.80;;;9.20;99.90;;;;;;5004551;28;20060;-50
2022/11/10 00:28:36;;;;;;;16.02;2.92;;;9.10;99.90;;;;;;5005548;28;20752;-52
2022/11/10 00:31:06;;;;;;;20.52;3.05;;;9.40;99.90;;;;;;5007345;28;20495;-50
2022/11/10 00:33:35;;;;;;;16.85;2.83;;;11.10;99.90;;;;;;5003546;28;20043;-52
2022/11/10 00:36:00;;;;;;;16.50;4.70;;;11.50;99.90;;;;;;5006079;28;20050;-53
2022/11/10 00:38:26;;;;;;;20.52;4.07;;;9.30;99.90;;;;;;5005166;28;20571;-52
2022/11/10 00:40:52;;;;;;;15.48;3.63;;;9.30;99.90;;;;;;5003314;28;20894;-49
2022/11/10 00:43:17;;;;;;;20.02;3.22;;;9.60;99.90;;;;;;5004509;28;20136;-51
2022/11/10 00:45:43;;;;;;;12.05;4.60;;;10.80;99.90;;;;;;5006238;28;20049;-52
2022/11/10 00:48:09;;;;;;;18.80;3.47;;;10.00;99.90;;;;;;5004325;28;20688;-52
2022/11/10 00:50:34;;;;;;;15.90;3.05;;;9.10;99.90;;;;;;5000543;28;20037;-53
2022/11/10 00:53:00;;;;;;;20.45;4.15;;;9.30;99.90;;;;;;5001952;28;20044;-50
2022/11/10 00:55:26;;;;;;;12.52;3.03;;;9.50;99.90;;;;;;5003519;28;20314;-49
2022/11/10 00:57:52;;;;;;;13.73;3.00;;;11.20;99.90;;;;;;5004588;28;20038;-53
2022/11/10 01:00:18;;;;;;;12.88;3.15;;;9.40;99.90;;;;;;5004902;28;20435;-53
2022/11/10 01:02:43;;;;;;;20.63;4.05;;;9.40;99.90;;;;;;4998288;28;20415;-50
2022/11/10 01:05:09;;;;;;;16.52;3.25;;;9.30;99.90;;;;;;5002838;28;20128;-52
2022/11/10 01:07:35;;;;;;;14.80;3.50;;;10.00;99.90;;;;;;5001220;28;20057;-49
2022/11/10 01:10:00;;;;;;;18.35;4.00;;;9.30;99.90;;;;;;5002956;28;20048;-53
2022/11/10 01:12:30;;;;;;;20.50;3.15;;;11.20;99.90;;;;;;5001821;28;20053;-53
2022/11/10 01:14:56;;;;;;;19.55;3.65;;;9.40;99.90;;;;;;5000416;28;20046;-53
2022/11/10 01:17:22;;;;;;;16.25;3.40;;;9.40;99.90;;;;;;5005787;28;20061;-52
2022/11/10 01:19:47;;;;;;;15.00;2.80;;;11.70;99.90;;;;;;5004284;28;20057;-52
2022/11/10 01:22:13;;;;;;;14.25;3.38;;;9.10;99.90;;;;;;5005599;28;20041;-53
2022/11/10 01:24:39;;;;;;;18.10;3.10;;;9.30;99.90;;;;;;5001634;28;20124;-50
2022/11/10 01:27:05;;;;;;;18.98;3.20;;;11.60;99.90;;;;;;5004571;28;20045;-52
2022/11/10 01:29:30;;;;;;;13.98;2.90;;;9.30;99.90;;;;;;5003128;28;20038;-51
2022/11/10 01:31:56;;;;;;;20.35;3.63;;;9.30;99.90;;;;;;5003400;28;20041;-50
2022/11/10 01:34:22;;;;;;;17.73;4.68;;;11.40;99.90;;;;;;5004332;28;21033;-53
2022/11/10 01:36:47;;;;;;;15.50;3.17;;;9.20;99.90;;;;;;5002764;28;20060;-53
2022/11/10 01:39:13;;;;;;;17.85;3.40;;;9.90;99.90;;;;;;5004240;28;20617;-49
2022/11/10 01:41:39;;;;;;;12.60;3.42;;;9.30;99.90;;;;;;5002425;28;20714;-55
2022/11/10 01:44:33;;;;;;;17.15;4.32;;;9.30;99.90;;;;;;5002140;28;20046;-54
2022/11/10 01:46:59;;;;;;;14.90;3.63;;;9.20;99.90;;;;;;5001843;28;20062;-50
2022/11/10 01:49:26;;;;;;;20.77;4.25;;;9.20;99.90;;;;;;5000905;28;20076;-48
2022/11/10 01:51:57;;;;;;;23.98;5.50;;;9.10;99.90;;;;;;5001196;28;20073;-49
2022/11/10 01:54:29;;;;;;;19.33;4.00;;;9.20;99.90;;;;;;5003858;28;20061;-52
2022/11/10 01:56:57;;;;;;;;;;;9.10;99.90;;;;;;5005968;28;20045;-53
2022/11/10 01:59:29;;;;;;;18.48;3.75;;;9.00;99.90;;;;;;5005443;28;20007;-52
2022/11/10 02:02:02;;;;;;;22.15;4.32;;;9.00;99.90;;;;;;5001187;28;20045;-53
2022/11/10 02:04:29;;;;;;;21.63;4.60;;;9.20;99.90;;;;;;5001589;28;20042;-53
2022/11/10 02:06:55;;;;;;;16.90;4.20;;;10.20;99.90;;;;;;5009285;28;20045;-52
2022/11/10 02:09:21;;;;;;;19.23;4.43;;;9.00;99.90;;;;;;5006209;28;20068;-53
2022/11/10 02:11:50;;;;;;;19.05;4.43;;;9.90;99.90;;;;;;5006967;28;20041;-54
2022/11/10 02:14:16;;;;;;;20.25;4.55;;;9.10;99.90;;;;;;5006942;28;20529;-50
2022/11/10 02:16:42;;;;;;;16.38;4.28;;;9.80;99.90;;;;;;5005744;28;20038;-50
2022/11/10 02:19:17;;;;;;;21.00;4.43;;;9.00;99.90;;;;;;5009684;28;20054;-54
2022/11/10 02:21:42;;;;;;;18.38;4.97;;;9.20;99.90;;;;;;5006335;28;20045;-51
2022/11/10 02:24:08;;;;;;;18.50;5.55;;;10.40;99.90;;;;;;5005082;28;20041;-52
2022/11/10 02:26:36;;;;;;;20.25;4.97;;;9.20;99.90;;;;;;5004550;28;20034;-51
2022/11/10 02:29:02;;;;;;;21.08;4.55;;;9.00;99.90;;;;;;5003947;28;20041;-52
2022/11/10 02:31:28;;;;;;;19.08;5.38;;;9.10;99.90;;;;;;5005578;28;20045;-52
2022/11/10 02:33:53;;;;;;;16.63;4.40;;;9.10;99.90;;;;;;5006399;28;20045;-53
2022/11/10 02:36:19;;;;;;;18.27;5.03;;;9.50;99.90;;;;;;5006743;28;20130;-49
2022/11/10 02:38:45;;;;;;;20.27;4.32;;;9.10;99.90;;;;;;5003552;28;20301;-50
2022/11/10 02:41:10;;;;;;;19.33;4.43;;;9.20;99.90;;;;;;5004023;28;20057;-50
2022/11/10 02:43:37;;;;;;;17.38;4.40;;;9.20;99.90;;;;;;5003830;28;20045;-51
2022/11/10 02:46:03;;;;;;;15.90;4.35;;;10.50;99.90;;;;;;5006430;28;20491;-49
2022/11/10 02:48:29;;;;;;;27.40;4.40;;;9.20;99.90;;;;;;5007777;28;20452;-53
2022/11/10 02:50:54;;;;;;;18.20;4.15;;;9.00;99.90;;;;;;5007832;28;20062;-53
2022/11/10 02:53:20;;;;;;;15.77;3.85;;;10.50;99.90;;;;;;5004554;28;20056;-51
2022/11/10 02:55:46;;;;;;;19.45;4.60;;;11.30;99.90;;;;;;5007062;28;20454;-52
2022/11/10 02:58:12;;;;;;;18.40;4.93;;;9.70;99.90;;;;;;5004709;28;20047;-50
2022/11/10 03:00:37;;;;;;;15.65;3.95;;;9.10;99.90;;;;;;5002767;28;20808;-54
2022/11/10 03:03:04;;;;;;;21.73;4.90;;;9.10;99.90;;;;;;5006796;28;20608;-53
2022/11/10 03:05:29;;;;;;;21.88;4.82;;;10.90;99.90;;;;;;5004443;28;20772;-52
2022/11/10 03:08:00;;;;;;;20.45;5.43;;;9.30;99.90;;;;;;5003798;28;20036;-51
2022/11/10 03:10:28;;;;;;;25.77;4.32;;;9.20;99.90;;;;;;5003035;28;20124;-51
2022/11/10 03:12:58;;;;;;;20.05;4.50;;;9.20;99.90;;;;;;5005515;28;20033;-51
2022/11/10 03:15:24;;;;;;;25.00;4.75;;;9.50;99.90;;;;;;5007634;28;20114;-50
2022/11/10 03:17:50;;;;;;;16.65;5.00;;;10.50;99.90;;;;;;5006837;28;20069;-52
2022/11/10 03:20:16;;;;;;;18.17;4.68;;;9.20;99.90;;;;;;5007140;28;20037;-52
2022/11/10 03:22:42;;;;;;;19.58;4.45;;;9.20;99.90;;;;;;5006019;28;20128;-51
2022/11/10 03:25:08;;;;;;;18.38;5.10;;;9.40;99.90;;;;;;5001599;28;20045;-53
2022/11/10 03:27:34;;;;;;;21.50;5.32;;;9.20;99.90;;;;;;5007899;28;20127;-51
2022/11/10 03:30:00;;;;;;;18.90;4.82;;;9.40;99.90;;;;;;5006782;28;20053;-50
2022/11/10 03:32:25;;;;;;;16.85;4.18;;;9.20;99.90;;;;;;5005119;28;20079;-53
2022/11/10 03:34:51;;;;;;;19.27;4.75;;;9.20;99.90;;;;;;5004709;28;20050;-49
2022/11/10 03:37:17;;;;;;;26.13;5.38;;;10.30;99.90;;;;;;4999391;28;20067;-51
2022/11/10 03:39:43;;;;;;;22.83;4.55;;;9.20;99.90;;;;;;5005021;28;20603;-49
2022/11/10 03:42:09;;;;;;;16.63;3.95;;;10.30;99.90;;;;;;5001561;28;20136;-52
2022/11/10 03:44:34;;;;;;;16.77;4.55;;;9.20;99.90;;;;;;5005185;28;21883;-53
2022/11/10 03:47:02;;;;;;;24.13;4.93;;;11.40;99.90;;;;;;5007262;28;20184;-50
2022/11/10 03:49:29;;;;;;;19.17;4.03;;;9.70;99.90;;;;;;5004132;28;20046;-52
2022/11/10 03:51:55;;;;;;;22.73;6.07;;;9.30;99.90;;;;;;5006534;28;20041;-51
2022/11/10 03:54:20;;;;;;;20.63;4.60;;;10.00;99.90;;;;;;5002696;28;20069;-49
2022/11/10 03:56:46;;;;;;;18.98;4.38;;;11.30;99.90;;;;;;5006424;28;20586;-53
2022/11/10 03:59:12;;;;;;;17.90;4.07;;;9.40;99.90;;;;;;5005750;28;20052;-53
2022/11/10 04:01:38;;;;;;;21.25;4.15;;;9.50;99.90;;;;;;5004108;28;20048;-52
2022/11/10 04:04:04;;;;;;;22.38;4.15;;;9.00;99.90;;;;;;5006794;28;20073;-51
2022/11/10 04:09:14;;;;;;;27.17;5.07;;;10.80;99.90;;;;;;5004398;28;20116;-49
2022/11/10 04:17:08;;;;;;;15.93;4.63;;;11.50;99.90;;;;;;5005246;28;20161;-53
2022/11/10 04:19:34;;;;;;;17.08;4.32;;;10.10;99.90;;;;;;5004285;28;20507;-51
2022/11/10 04:22:00;;;;;;;25.55;5.05;;;10.00;99.90;;;;;;5000803;28;20052;-54
2022/11/10 04:24:25;;;;;;;22.15;4.40;;;9.50;99.90;;;;;;5004424;28;20144;-52
2022/11/10 04:26:51;;;;;;;28.90;5.13;;;9.40;99.90;;;;;;5001266;28;20124;-53
2022/11/10 04:29:18;;;;;;;22.33;5.38;;;9.50;99.90;;;;;;5004064;28;20045;-52
2022/11/10 04:31:44;;;;;;;20.77;6.13;;;9.40;99.90;;;;;;5001807;28;20407;-53
2022/11/10 04:34:12;;;;;;;25.70;5.00;;;9.30;99.90;;;;;;5004738;28;20529;-54
2022/11/10 04:36:41;;;;;;;23.60;4.68;;;10.10;99.90;;;;;;5006331;28;20045;-51
2022/11/10 04:39:08;;;;;;;18.77;4.95;;;9.40;99.90;;;;;;5005548;28;20045;-49
2022/11/10 04:41:34;;;;;;;25.13;4.82;;;9.50;99.90;;;;;;5006180;28;20053;-52
2022/11/10 04:44:00;;;;;;;19.27;4.97;;;9.60;99.90;;;;;;5003753;28;20042;-51
2022/11/10 04:46:35;;;;;;;21.17;5.25;;;9.50;99.90;;;;;;5006051;28;20079;-51
2022/11/10 04:49:01;;;;;;;21.20;4.30;;;9.70;99.90;;;;;;5001352;28;20053;-52
2022/11/10 04:51:32;;;;;;;23.40;6.45;;;9.60;99.90;;;;;;5004263;28;20544;-50
2022/11/10 04:53:58;;;;;;;17.10;3.53;;;9.60;99.90;;;;;;5001963;28;20122;-52
2022/11/10 04:56:25;;;;;;;22.75;4.35;;;9.60;99.90;;;;;;5001138;28;20304;-53
2022/11/10 04:58:52;;;;;;;23.50;4.22;;;11.70;99.90;;;;;;5004539;28;20075;-52
2022/11/10 05:01:20;;;;;;;20.25;3.92;;;9.60;99.90;;;;;;5003023;28;20142;-54
2022/11/10 05:03:47;;;;;;;29.02;4.88;;;9.50;99.90;;;;;;5005486;28;20057;-53
2022/11/10 05:06:13;;;;;;;26.88;4.32;;;10.40;99.90;;;;;;5002861;28;20029;-53
2022/11/10 05:08:41;;;;;;;20.40;4.53;;;10.20;99.90;;;;;;5004014;28;21697;-54
2022/11/10 05:11:06;;;;;;;22.20;4.28;;;10.50;99.90;;;;;;5001498;28;20049;-54
2022/11/10 05:13:32;;;;;;;32.55;5.32;;;9.50;99.90;;;;;;5001731;28;20041;-52
2022/11/10 05:15:58;;;;;;;22.35;4.78;;;10.00;99.90;;;;;;5004295;28;20046;-52
2022/11/10 05:18:24;;;;;;;24.45;4.53;;;9.80;99.90;;;;;;5005057;28;20045;-54
2022/11/10 05:20:52;;;;;;;18.48;4.47;;;10.00;99.90;;;;;;5004519;28;21410;-55
2022/11/10 05:23:37;;;;;;;21.65;4.30;;;10.80;99.90;;;;;;5000889;28;20085;-53
2022/11/10 05:26:08;;;;;;;25.58;5.40;;;11.50;99.90;;;;;;5001671;28;20076;-53
2022/11/10 05:28:34;;;;;;;23.05;4.45;;;9.40;99.90;;;;;;5002187;28;20052;-52
2022/11/10 05:31:00;;;;;;;23.40;4.20;;;9.70;99.90;;;;;;5004884;28;20033;-54
2022/11/10 05:33:26;;;;;;;20.80;4.78;;;11.60;99.90;;;;;;5001066;28;20045;-52
2022/11/10 05:35:52;;;;;;;20.02;4.18;;;9.30;99.90;;;;;;5001238;28;20132;-53
2022/11/10 05:38:17;;;;;;;22.73;4.82;;;11.50;99.90;;;;;;5000744;28;20072;-51
2022/11/10 05:40:43;;;;;;;19.65;4.82;;;9.50;99.90;;;;;;4986276;28;20404;-52
2022/11/10 05:43:09;;;;;;;26.05;5.05;;;10.30;99.90;;;;;;5007075;28;20497;-49
2022/11/10 05:45:35;;;;;;;16.33;4.03;;;9.60;99.90;;;;;;5004518;28;20048;-54
2022/11/10 05:48:02;;;;;;;20.90;3.92;;;11.50;99.90;;;;;;5009518;28;20042;-48
2022/11/10 05:50:27;;;;;;;26.10;5.20;;;9.70;99.90;;;;;;5005184;28;20640;-53
2022/11/10 05:52:54;;;;;;;17.20;4.40;;;9.70;99.90;;;;;;5008574;28;20037;-53
2022/11/10 05:55:22;;;;;;;29.65;5.38;;;9.50;99.90;;;;;;5006932;28;20527;-52
2022/11/10 05:57:50;;;;;;;26.77;4.80;;;9.60;99.90;;;;;;5007576;28;20080;-49
2022/11/10 06:00:22;;;;;;;17.90;4.85;;;12.00;99.90;;;;;;5010512;28;20124;-49
2022/11/10 06:02:59;;;;;;;24.17;3.90;;;9.60;99.90;;;;;;5006110;28;20041;-51
2022/11/10 06:05:25;;;;;;;26.67;4.15;;;9.80;99.90;;;;;;5007188;28;20052;-52
2022/11/10 06:07:51;;;;;;;19.80;5.15;;;11.10;99.90;;;;;;5005991;28;20056;-54
2022/11/10 06:10:17;;;;;;;27.83;5.07;;;10.20;99.90;;;;;;5008939;28;20042;-51
2022/11/10 06:12:43;;;;;;;23.02;3.88;;;9.80;99.90;;;;;;5006384;28;20045;-50
2022/11/10 06:15:10;;;;;;;25.20;4.13;;;9.80;99.90;;;;;;5007420;28;20045;-53
2022/11/10 06:17:39;;;;;;;30.50;5.10;;;9.70;99.90;;;;;;5008565;28;20586;-49
2022/11/10 06:20:05;;;;;;;23.98;4.43;;;10.30;99.90;;;;;;5004655;28;20058;-49
2022/11/10 06:22:31;;;;;;;24.42;3.75;;;9.60;99.90;;;;;;5006561;28;20045;-50
2022/11/10 06:24:57;;;;;;;27.33;4.78;;;9.50;99.90;;;;;;5007362;28;20085;-50
2022/11/10 06:27:22;;;;;;;24.40;4.00;;;10.70;99.90;;;;;;5006764;28;20061;-51
2022/11/10 06:29:48;;;;;;;21.48;4.43;;;10.00;99.90;;;;;;4986379;28;20041;-51
2022/11/10 06:32:14;;;;;;;17.60;3.50;;;9.50;99.90;;;;;;5004939;28;20144;-51
2022/11/10 06:34:39;;;;;;;21.95;3.63;;;9.70;99.90;;;;;;5007200;28;20045;-49
2022/11/10 06:37:05;;;;;;;20.13;3.60;;;9.60;99.90;;;;;;5006085;28;20057;-50
2022/11/10 06:39:31;;;;;;;31.48;5.05;;;9.80;99.90;;;;;;5005496;28;20037;-54
2022/11/10 06:42:00;;;;;;;26.30;4.07;;;10.10;99.90;;;;;;5006631;28;20053;-53
2022/11/10 06:44:26;;;;;;;24.77;4.15;;;9.70;99.90;;;;;;5008436;28;20044;-48
2022/11/10 06:46:52;;;;;;;24.63;5.03;;;9.70;99.90;;;;;;5007119;28;20049;-52
2022/11/10 06:49:17;;;;;;;25.45;4.25;;;11.70;99.90;;;;;;5005433;28;20033;-49
2022/11/10 06:51:43;;;;;;;23.77;4.78;;;9.70;99.90;;;;;;5005587;28;20383;-47
2022/11/10 06:54:09;;;;;;;21.88;4.97;;;9.70;99.90;;;;;;5008508;28;20072;-47
2022/11/10 06:56:35;;;;;;;29.17;5.10;;;11.40;99.90;;;;;;5007905;28;20029;-50
2022/11/10 06:59:01;;;;;;;27.52;4.93;;;9.70;99.90;;;;;;5008014;28;20046;-52
2022/11/10 07:01:27;;;;;;;29.23;4.68;;;9.70;99.90;;;;;;5007271;28;20042;-48
2022/11/10 07:03:53;;;;;;;24.05;4.15;;;9.90;99.90;;;;;;5007792;28;20041;-47
2022/11/10 07:06:19;;;;;;;29.65;4.80;;;9.70;99.90;;;;;;5005652;28;20059;-48
2022/11/10 07:08:45;;;;;;;17.02;3.83;;;11.30;99.90;;;;;;5003953;28;20261;-48
2022/11/10 07:11:11;;;;;;;23.02;4.40;;;9.70;99.90;;;;;;5004083;28;20045;-48
2022/11/10 07:13:38;;;;;;;24.88;4.50;;;9.70;99.90;;;;;;5006581;28;20137;-49
2022/11/10 07:16:08;;;;;;;21.48;4.38;;;11.50;99.90;;;;;;5006079;28;20045;-50
2022/11/10 07:18:34;;;;;;;27.65;5.40;;;9.70;99.90;;;;;;5008265;28;20132;-52
2022/11/10 07:21:04;;;;;;;25.15;5.57;;;11.70;99.90;;;;;;5008140;28;20196;-48
2022/11/10 07:23:32;;;;;;;28.25;4.30;;;10.10;99.90;;;;;;5005550;28;20046;-49
2022/11/10 07:26:01;;;;;;;30.75;5.00;;;9.80;99.90;;;;;;5004756;28;20042;-49
2022/11/10 07:28:27;;;;;;;24.00;4.63;;;9.90;99.90;;;;;;5005635;28;20101;-49
2022/11/10 07:30:53;;;;;;;22.35;4.35;;;9.80;99.90;;;;;;5005850;28;20040;-51
2022/11/10 07:33:19;;;;;;;24.63;6.22;;;9.80;99.90;;;;;;5004531;28;20042;-51
2022/11/10 07:35:53;;;;;;;28.73;5.35;;;9.70;99.90;;;;;;5004239;28;20412;-50
2022/11/10 07:38:19;;;;;;;20.83;4.60;;;11.70;99.90;;;;;;5005009;28;20432;-48
2022/11/10 07:40:44;;;;;;;25.65;4.53;;;11.70;99.90;;;;;;5006160;28;20038;-49
2022/11/10 07:43:10;;;;;;;23.90;4.65;;;9.80;99.90;;;;;;5006659;28;20054;-52
2022/11/10 07:45:36;;;;;;;21.50;4.05;;;10.60;99.90;;;;;;5002425;28;20132;-50
2022/11/10 07:48:04;;;;;;;25.70;4.35;;;9.70;99.90;;;;;;5006209;28;20045;-47
2022/11/10 07:50:32;;;;;;;26.52;4.40;;;9.80;99.90;;;;;;5002800;28;20396;-50
2022/11/10 07:53:06;;;;;;;34.60;6.47;;;9.70;99.90;;;;;;5002468;28;20037;-52
2022/11/10 07:55:33;;;;;;;22.33;4.50;;;11.30;99.90;;;;;;5006269;28;20052;-51
2022/11/10 07:57:59;;;;;;;22.45;4.18;;;11.90;99.90;;;;;;5004802;28;20189;-48
2022/11/10 08:00:25;;;;;;;24.15;5.45;;;9.80;99.90;;;;;;5007413;28;20057;-49
2022/11/10 08:02:51;;;;;;;23.08;4.80;;;9.70;99.90;;;;;;5003877;28;20063;-52
2022/11/10 08:05:17;;;;;;;24.95;4.55;;;12.00;99.90;;;;;;5006532;28;20049;-52
2022/11/10 08:07:43;;;;;;;30.50;6.45;;;10.90;99.90;;;;;;5005027;28;20257;-48
2022/11/10 08:10:09;;;;;;;24.10;5.65;;;12.20;99.90;;;;;;5006258;28;20049;-51
2022/11/10 08:12:35;;;;;;;25.27;5.57;;;10.10;99.90;;;;;;5006672;28;20044;-51
2022/11/10 08:15:02;;;;;;;25.83;4.35;;;10.30;99.90;;;;;;5006198;28;20139;-49
2022/11/10 08:17:28;;;;;;;20.15;4.78;;;11.90;99.90;;;;;;5007622;28;20160;-48
2022/11/10 08:19:54;;;;;;;22.77;5.03;;;10.70;99.90;;;;;;5005709;28;20181;-54
2022/11/10 08:22:20;;;;;;;21.83;4.93;;;10.90;99.90;;;;;;5006611;28;20049;-52
2022/11/10 08:24:46;;;;;;;18.38;4.40;;;11.30;99.90;;;;;;5007755;28;20047;-52
2022/11/10 08:27:11;;;;;;;20.90;4.25;;;11.70;99.90;;;;;;5005132;28;20045;-52
2022/11/10 08:29:37;;;;;;;22.17;4.93;;;12.20;99.90;;;;;;5002575;28;20089;-52
2022/11/10 08:32:03;;;;;;;30.98;5.40;;;12.80;99.90;;;;;;5004016;28;20037;-50
2022/11/10 08:34:28;;;;;;;21.08;4.10;;;13.10;99.90;;;;;;5006132;28;20389;-53
2022/11/10 08:36:54;;;;;;;20.42;4.35;;;13.10;99.90;;;;;;5002317;28;20038;-53
2022/11/10 08:39:20;;;;;;;21.65;4.72;;;13.40;97.60;;;;;;5002701;28;20049;-52
2022/11/10 08:41:46;;;;;;;23.80;5.70;;;13.20;96.60;;;;;;5005294;28;20041;-48
2022/11/10 08:44:12;;;;;;;27.20;4.93;;;14.80;98.90;;;;;;5004511;28;20415;-51
2022/11/10 08:46:38;;;;;;;26.45;4.65;;;12.60;98.10;;;;;;5006069;28;20049;-52
2022/11/10 08:49:04;;;;;;;26.30;4.72;;;12.60;99.90;;;;;;5003266;28;20052;-50
2022/11/10 08:51:29;;;;;;;24.13;5.20;;;12.80;99.90;;;;;;5005137;28;20063;-50
2022/11/10 08:53:55;;;;;;;21.05;5.00;;;12.20;99.90;;;;;;5003941;28;20049;-50
2022/11/10 08:56:21;;;;;;;24.95;4.75;;;12.90;99.90;;;;;;5003487;28;20864;-52
2022/11/10 08:58:49;;;;;;;18.50;3.95;;;12.40;99.90;;;;;;5004561;28;20042;-47
2022/11/10 09:01:14;;;;;;;20.90;5.35;;;13.20;99.90;;;;;;5000660;28;20061;-51
2022/11/10 09:03:40;;;;;;;21.70;4.30;;;13.70;99.90;;;;;;5000668;28;20052;-52
2022/11/10 09:06:06;;;;;;;28.00;5.68;;;13.50;94.20;;;;;;5001000;28;20598;-51
2022/11/10 09:08:32;;;;;;;21.25;4.28;;;13.60;93.70;;;;;;5001542;28;20056;-51
2022/11/10 09:11:03;;;;;;;23.20;3.92;;;13.50;95.00;;;;;;5005717;28;20615;-49
2022/11/10 09:13:28;;;;;;;18.63;4.22;;;13.30;98.00;;;;;;5003895;28;20077;-48
2022/11/10 09:15:54;;;;;;;25.90;4.63;;;15.40;99.90;;;;;;5006616;28;20038;-51
2022/11/10 09:18:20;;;;;;;19.17;3.95;;;12.90;99.90;;;;;;5009391;28;20417;-50
2022/11/10 09:20:45;;;;;;;24.05;4.25;;;14.30;99.90;;;;;;5006761;28;20044;-49
2022/11/10 09:23:16;;;;;;;19.13;4.43;;;12.40;99.90;;;;;;5008147;28;20042;-50
2022/11/10 09:25:47;;;;;;;22.77;5.03;;;12.60;99.90;;;;;;5007405;28;20606;-50
2022/11/10 09:28:13;;;;;;;25.60;5.32;;;12.10;99.90;;;;;;5009581;28;20052;-49
2022/11/10 09:30:39;;;;;;;21.65;5.38;;;12.00;99.90;;;;;;5010910;28;20575;-50
2022/11/10 09:33:05;;;;;;;24.73;5.50;;;12.00;99.90;;;;;;5005701;28;20452;-48
2022/11/10 09:35:31;;;;;;;23.10;6.22;;;11.90;99.90;;;;;;5006628;28;20045;-48
2022/11/10 09:37:56;;;;;;;24.33;5.63;;;12.30;99.90;;;;;;5005819;28;20033;-48
2022/11/10 09:40:29;;;;;;;24.90;5.82;;;11.70;99.90;;;;;;5006335;28;20045;-49
2022/11/10 09:42:58;;;;;;;28.98;5.55;;;11.90;99.90;;;;;;5007384;28;20119;-48
2022/11/10 09:45:38;;;;;;;31.65;6.03;;;11.60;99.90;;;;;;5007586;28;20376;-48
2022/11/10 09:48:16;;;;;;;24.60;6.13;;;13.70;99.90;;;;;;5006979;28;20717;-48
2022/11/10 09:51:02;;;;;;;27.73;6.70;;;11.70;99.90;;;;;;5003679;28;20050;-52
2022/11/10 09:53:40;;;;;;;25.67;6.15;;;12.90;99.90;;;;;;5009585;28;20072;-52
2022/11/10 09:56:09;;;;;;;20.58;5.40;;;11.70;99.90;;;;;;5004702;28;20045;-48
2022/11/10 09:58:41;;;;;;;21.77;5.60;;;11.60;99.90;;;;;;5009406;28;20084;-51
2022/11/10 10:01:10;;;;;;;20.80;5.57;;;11.50;99.90;;;;;;5008160;28;20507;-47
2022/11/10 10:03:42;;;;;;;24.83;6.28;;;11.70;99.90;;;;;;5007377;28;20041;-50
2022/11/10 10:06:13;;;;;;;26.30;6.15;;;11.50;99.90;;;;;;5006209;28;20038;-51
2022/11/10 10:08:48;;;;;;;28.55;5.07;;;11.70;99.90;;;;;;5006381;28;20054;-48
2022/11/10 10:11:32;;;;;;;24.05;5.18;;;11.70;99.90;;;;;;5004339;28;20508;-50
2022/11/10 10:14:10;;;;;;;23.77;5.72;;;11.80;99.90;;;;;;5006581;28;20107;-51
2022/11/10 10:16:42;;;;;;;20.77;5.25;;;11.90;99.90;;;;;;5005088;28;20053;-49
2022/11/10 10:19:36;;;;;;;26.55;5.25;;;12.00;99.90;;;;;;5007149;28;20056;-53
2022/11/10 10:22:29;;;;;;;20.50;5.13;;;12.00;99.90;;;;;;5005757;28;20053;-49
2022/11/10 10:25:01;;;;;;;25.88;5.95;;;12.00;99.90;;;;;;5005854;28;20432;-51
2022/11/10 10:27:28;;;;;;;20.30;5.40;;;14.00;99.90;;;;;;5005770;28;20044;-53
2022/11/10 10:29:54;;;;;;;21.08;4.70;;;12.00;99.90;;;;;;5004538;28;20050;-50
2022/11/10 10:32:21;;;;;;;21.42;5.25;;;14.20;99.90;;;;;;5004795;28;23076;-49
2022/11/10 10:34:47;;;;;;;22.52;5.20;;;12.20;99.90;;;;;;5007228;28;20037;-47
2022/11/10 10:37:24;;;;;;;23.77;5.43;;;12.20;99.90;;;;;;5005969;28;20077;-47
2022/11/10 10:39:53;;;;;;;24.27;6.05;;;12.30;99.90;;;;;;5008348;28;20395;-48
2022/11/10 10:42:30;;;;;;;24.33;5.68;;;12.30;99.90;;;;;;5005420;28;20044;-50
2022/11/10 10:45:16;;;;;;;23.13;4.68;;;12.60;99.90;;;;;;5006120;28;20037;-51
2022/11/10 10:47:42;;;;;;;22.27;4.75;;;12.60;99.90;;;;;;5004332;28;20034;-48
2022/11/10 10:50:33;;;;;;;30.42;7.50;;;12.70;99.90;;;;;;5006142;28;20041;-54
2022/11/10 10:53:21;;;;;;;21.92;4.20;;;12.40;99.90;;;;;;5007992;28;20064;-50
2022/11/10 10:56:25;;;;;;;16.92;3.78;;;12.60;99.90;;;;;;5005980;28;20114;-48
2022/11/10 10:58:57;;;;;;;23.23;4.90;;;12.80;99.90;;;;;;5007870;28;20057;-48
2022/11/10 11:01:25;;;;;;;26.35;4.90;;;12.60;99.90;;;;;;5004571;28;20041;-50
2022/11/10 11:03:52;;;;;;;24.20;4.40;;;12.70;99.90;;;;;;5007616;28;20050;-49
2022/11/10 11:06:25;;;;;;;24.08;4.00;;;12.70;99.90;;;;;;5007700;28;20053;-48
2022/11/10 11:09:05;;;;;;;21.63;4.97;;;12.80;99.90;;;;;;5006855;28;20128;-52
2022/11/10 11:11:37;;;;;;;18.58;3.88;;;12.80;99.90;;;;;;5005213;28;20037;-52
2022/11/10 11:14:18;;;;;;;22.77;4.57;;;12.70;99.90;;;;;;5007075;28;20526;-48
2022/11/10 11:16:57;;;;;;;22.70;3.97;;;12.70;99.90;;;;;;5006867;28;20094;-52
2022/11/10 11:19:28;;;;;;;26.65;4.65;;;12.80;99.90;;;;;;5006729;28;20088;-50
2022/11/10 11:21:53;;;;;;;32.33;5.43;;;12.60;99.90;;;;;;5001084;28;20187;-51
2022/11/10 11:24:52;;;;;;;24.77;4.40;;;12.70;99.90;;;;;;5004189;28;20046;-52
2022/11/10 11:27:29;;;;;;;21.85;4.18;;;12.70;99.90;;;;;;5003752;28;20677;-52
2022/11/10 11:29:58;;;;;;;22.17;5.07;;;10.80;99.90;;;;;;5002308;28;20046;-51
2022/11/10 11:32:32;;;;;;;20.35;4.35;;;12.70;99.90;;;;;;5004981;28;20050;-50
2022/11/10 11:35:15;;;;;;;21.70;3.72;;;12.60;99.90;;;;;;5004191;28;20086;-50
2022/11/10 11:37:46;;;;;;;17.05;3.90;;;12.70;99.90;;;;;;5002075;28;20041;-52
2022/11/10 11:40:42;;;;;;;23.60;4.65;;;12.80;99.90;;;;;;5003860;28;22916;-49
2022/11/10 11:43:32;;;;;;;18.65;3.55;;;12.80;99.90;;;;;;5003327;28;20072;-49
2022/11/10 11:46:28;;;;;;;19.02;3.75;;;12.90;99.90;;;;;;5005646;28;20065;-50
2022/11/10 11:49:18;;;;;;;22.80;4.20;;;13.10;99.90;;;;;;5007663;28;20076;-49
2022/11/10 11:52:00;;;;;;;25.13;4.28;;;12.90;99.90;;;;;;5004984;28;20094;-50
2022/11/10 11:54:41;;;;;;;27.70;4.00;;;13.20;99.90;;;;;;5003289;28;20059;-48
2022/11/10 11:57:24;;;;;;;19.05;3.65;;;13.10;99.90;;;;;;5006287;28;20042;-48
2022/11/10 12:00:11;;;;;;;18.52;3.40;;;13.00;99.90;;;;;;5005246;28;20569;-49
2022/11/10 12:02:59;;;;;;;17.75;3.60;;;13.00;99.90;;;;;;5003746;28;20143;-48
2022/11/10 12:05:36;;;;;;;18.83;3.65;;;13.00;99.90;;;;;;5008905;28;20045;-50
2022/11/10 12:08:10;;;;;;;23.38;4.13;;;12.80;99.90;;;;;;5004860;28;20041;-50
2022/11/10 12:10:59;;;;;;;18.17;4.40;;;12.80;99.90;;;;;;5006333;28;20048;-49
2022/11/10 12:13:35;;;;;;;19.33;3.22;;;13.10;99.90;;;;;;5009112;28;20053;-51
2022/11/10 12:16:10;;;;;;;22.33;4.78;;;12.90;99.90;;;;;;5006107;28;20041;-48
2022/11/10 12:18:49;;;;;;;19.10;3.45;;;13.10;99.90;;;;;;5004568;28;20049;-52
2022/11/10 12:21:23;;;;;;;22.23;3.22;;;12.90;99.90;;;;;;5004084;28;20158;-47
2022/11/10 12:24:16;;;;;;;18.15;3.10;;;13.60;99.90;;;;;;5002280;28;20407;-48
2022/11/10 12:26:48;;;;;;;22.80;3.58;;;12.90;99.90;;;;;;5001342;28;20038;-49
2022/11/10 12:29:29;;;;;;;21.17;3.17;;;12.80;99.90;;;;;;5002398;28;20041;-47
2022/11/10 12:32:08;;;;;;;21.90;3.97;;;12.80;99.90;;;;;;5002007;28;20122;-48
2022/11/10 12:34:42;;;;;;;19.63;3.85;;;12.60;99.90;;;;;;5003943;28;20057;-48
2022/11/10 12:37:35;;;;;;;21.10;3.58;;;12.90;99.90;;;;;;5004297;28;20526;-47
2022/11/10 12:40:12;;;;;;;24.33;4.03;;;12.90;99.90;;;;;;5004186;28;20119;-48
2022/11/10 12:42:38;;;;;;;23.15;3.83;;;12.80;99.90;;;;;;5003221;28;20124;-52
2022/11/10 12:45:28;;;;;;;20.42;2.90;;;12.80;99.90;;;;;;5006009;28;20042;-48
2022/11/10 12:47:54;;;;;;;25.27;4.07;;;12.90;99.90;;;;;;5003976;28;20048;-53
2022/11/10 12:50:41;;;;;;;19.00;3.42;;;14.50;99.90;;;;;;5002014;28;20104;-48
2022/11/10 12:53:35;;;;;;;17.95;2.75;;;12.90;99.90;;;;;;5005826;28;20048;-47
2022/11/10 12:56:44;;;;;;;15.57;3.63;;;13.00;99.90;;;;;;5003250;28;20092;-48
2022/11/10 12:59:32;;;;;;;20.50;3.33;;;13.70;99.90;;;;;;5040732;28;20119;-51
2022/11/10 13:02:03;;;;;;;23.17;3.58;;;12.90;99.90;;;;;;5044330;28;20452;-47
2022/11/10 13:04:30;;;;;;;20.48;3.53;;;14.60;99.90;;;;;;5014783;28;20057;-48